Gulbeniz A — TCZK8 — position and weather

sailwx.info

Track history (hours):
 
Tides and Currents Weather Stations Pressure Air Temp Water Temp Dewpoint Dewpoint Depression Visibility Wind Speed Wind Dir Waves Ship Positions

Gulbeniz A

Last reported at 2015-Feb-27 11:33 UTC. Time now 2015-Mar-01 21:00 UTC.
Position N 36°02' W 005°22'.

Length 210 m; draft 10.8 m.

Type: Ship (hazmat cat A). MMSI: 271042493.

Date/timePositionNaut miles runAvg speedWind from/ knotsBaromVisibWave heightAir tempDewpointWater temp
2015-Feb-27 11:33N 36°02' W 005°22'9 9.5
2015-Feb-27 10:33N 36°08' W 005°12'9 0.4
2015-Feb-26 14:20N 36°14' W 005°06'5 1.0
2015-Feb-26 09:33N 36°10' W 005°08'13 3.2
2015-Feb-26 05:22N 35°57' W 005°10'1316.4
2015-Feb-26 04:34N 36°05' W 005°23'3 3.5
2015-Feb-26 03:33N 36°08' W 005°25'0 0.0
2015-Feb-26 02:33N 36°08' W 005°25'0 0.0
2015-Feb-26 01:33N 36°08' W 005°25'0 0.0
2015-Feb-26 00:33N 36°08' W 005°25'0 0.0
2015-Feb-25 23:33N 36°08' W 005°25'0 0.0
2015-Feb-25 22:33N 36°08' W 005°25'0 0.0
2015-Feb-25 21:33N 36°08' W 005°25'0 0.0
2015-Feb-25 20:33N 36°08' W 005°25'0 0.0
2015-Feb-25 19:33N 36°08' W 005°25'0 0.0
2015-Feb-25 18:33N 36°08' W 005°25'0 0.0
2015-Feb-25 17:33N 36°08' W 005°25'2 1.8
2015-Feb-25 16:33N 36°07' W 005°24'9 9.4
2015-Feb-25 15:33N 36°06' W 005°12'20515.2
2015-Feb-25 02:07N 37°09' W 001°10'1017.8
2015-Feb-25 01:33N 37°16' W 000°60'2017.8
2015-Feb-25 00:24N 37°29' W 000°41'1517.6
2015-Feb-24 23:33N 37°41' W 000°28'1817.9
2015-Feb-24 22:33N 37°55' W 000°16'8814.5
2015-Feb-24 16:30N 39°23' W 000°14'6 5.7
2015-Feb-24 15:31N 39°27' W 000°19'0 0.0
2015-Feb-24 14:31N 39°27' W 000°19'0 0.0
2015-Feb-24 13:31N 39°27' W 000°19'0 0.0
2015-Feb-24 12:28N 39°27' W 000°19'0 0.0
2015-Feb-24 11:31N 39°27' W 000°19'0 0.0
2015-Feb-24 10:31N 39°27' W 000°19'0 0.0
2015-Feb-24 09:31N 39°27' W 000°19'0 0.0
2015-Feb-24 08:31N 39°27' W 000°19'0 0.0
2015-Feb-24 07:31N 39°27' W 000°19'0 0.0
2015-Feb-24 06:31N 39°27' W 000°19'0 0.0
2015-Feb-24 05:31N 39°27' W 000°19'0 0.0
2015-Feb-24 04:31N 39°27' W 000°19'0 0.0
2015-Feb-24 03:31N 39°27' W 000°19'0 0.0
2015-Feb-24 02:31N 39°27' W 000°19'0 0.0
2015-Feb-24 01:31N 39°27' W 000°19'0 0.0
2015-Feb-24 00:31N 39°27' W 000°19'0 0.0
2015-Feb-23 23:31N 39°27' W 000°19'0 0.0
2015-Feb-23 22:31N 39°27' W 000°19'0 0.0
2015-Feb-23 21:31N 39°27' W 000°19'0 0.0
2015-Feb-23 20:31N 39°27' W 000°19'0 0.0
2015-Feb-23 19:31N 39°27' W 000°19'0 0.0
2015-Feb-23 18:31N 39°27' W 000°19'0 0.0
2015-Feb-23 17:31N 39°27' W 000°19'0 0.0
2015-Feb-23 16:31N 39°27' W 000°19'0 0.0
2015-Feb-23 15:28N 39°27' W 000°19'0 0.0
2015-Feb-23 14:31N 39°27' W 000°19'0 0.0
2015-Feb-23 12:31N 39°27' W 000°19'0 0.0
2015-Feb-23 11:31N 39°27' W 000°19'0 0.0
2015-Feb-23 10:31N 39°27' W 000°19'0 0.0
2015-Feb-23 09:28N 39°27' W 000°19'0 0.0
2015-Feb-23 08:31N 39°27' W 000°19'0 0.0
2015-Feb-23 07:31N 39°27' W 000°19'0 0.0
2015-Feb-23 06:31N 39°27' W 000°19'0 0.0
2015-Feb-23 05:31N 39°27' W 000°19'0 0.0
2015-Feb-23 04:31N 39°27' W 000°19'0 0.0
2015-Feb-23 03:31N 39°27' W 000°19'0 0.0
2015-Feb-23 02:31N 39°27' W 000°19'0 0.0
2015-Feb-23 01:28N 39°27' W 000°19'0 0.0
2015-Feb-23 00:31N 39°27' W 000°19'0 0.0
2015-Feb-22 23:31N 39°27' W 000°19'0 0.0
2015-Feb-22 22:31N 39°27' W 000°19'0 0.0
2015-Feb-22 21:31N 39°27' W 000°19'0 0.0
2015-Feb-22 20:31N 39°27' W 000°19'0 0.0
2015-Feb-22 19:31N 39°27' W 000°19'0 0.0
2015-Feb-22 18:31N 39°27' W 000°19'0 0.0
2015-Feb-22 17:31N 39°27' W 000°19'0 0.0
2015-Feb-22 16:31N 39°27' W 000°19'0 0.0
2015-Feb-22 15:31N 39°27' W 000°19'0 0.0
2015-Feb-22 14:31N 39°27' W 000°19'0 0.0
2015-Feb-22 13:31N 39°27' W 000°19'0 0.0
2015-Feb-22 12:31N 39°27' W 000°19'0 0.0
2015-Feb-22 11:33N 39°27' W 000°19'6 5.6
2015-Feb-22 10:33N 39°29' W 000°12'100 3.8
2015-Feb-21 08:30N 40°47' E 001°10'1515.4
2015-Feb-21 07:33N 40°32' E 001°06'1615.9
2015-Feb-21 06:33N 40°17' E 001°01'1616.1
2015-Feb-21 05:33N 40°01' E 000°55'37413.7
2015-Feb-20 02:14N 36°01' W 005°08'1014.8
2015-Feb-20 01:34N 35°59' W 005°21'  
Track history (hours):
 
Tides and Currents Weather Stations Pressure Air Temp Water Temp Dewpoint Dewpoint Depression Visibility Wind Speed Wind Dir Waves Ship Positions

Gulbeniz A

Last reported at 2015-Feb-27 11:33 UTC. Time now 2015-Mar-01 21:00 UTC.
Position N 36°02' W 005°22'.

Length 210 m; draft 10.8 m.

Type: Ship (hazmat cat A). MMSI: 271042493.

Date/timePositionNaut miles runAvg speedWind from/ knotsBaromVisibWave heightAir tempDewpointWater temp
2015-Feb-27 11:33N 36°02' W 005°22'9 9.5
2015-Feb-27 10:33N 36°08' W 005°12'9 0.4
2015-Feb-26 14:20N 36°14' W 005°06'5 1.0
2015-Feb-26 09:33N 36°10' W 005°08'13 3.2
2015-Feb-26 05:22N 35°57' W 005°10'1316.4
2015-Feb-26 04:34N 36°05' W 005°23'3 3.5
2015-Feb-26 03:33N 36°08' W 005°25'0 0.0
2015-Feb-26 02:33N 36°08' W 005°25'0 0.0
2015-Feb-26 01:33N 36°08' W 005°25'0 0.0
2015-Feb-26 00:33N 36°08' W 005°25'0 0.0
2015-Feb-25 23:33N 36°08' W 005°25'0 0.0
2015-Feb-25 22:33N 36°08' W 005°25'0 0.0
2015-Feb-25 21:33N 36°08' W 005°25'0 0.0
2015-Feb-25 20:33N 36°08' W 005°25'0 0.0
2015-Feb-25 19:33N 36°08' W 005°25'0 0.0
2015-Feb-25 18:33N 36°08' W 005°25'0 0.0
2015-Feb-25 17:33N 36°08' W 005°25'2 1.8
2015-Feb-25 16:33N 36°07' W 005°24'9 9.4
2015-Feb-25 15:33N 36°06' W 005°12'20515.2
2015-Feb-25 02:07N 37°09' W 001°10'1017.8
2015-Feb-25 01:33N 37°16' W 000°60'2017.8
2015-Feb-25 00:24N 37°29' W 000°41'1517.6
2015-Feb-24 23:33N 37°41' W 000°28'1817.9
2015-Feb-24 22:33N 37°55' W 000°16'8814.5
2015-Feb-24 16:30N 39°23' W 000°14'6 5.7
2015-Feb-24 15:31N 39°27' W 000°19'0 0.0
2015-Feb-24 14:31N 39°27' W 000°19'0 0.0
2015-Feb-24 13:31N 39°27' W 000°19'0 0.0
2015-Feb-24 12:28N 39°27' W 000°19'0 0.0
2015-Feb-24 11:31N 39°27' W 000°19'0 0.0
2015-Feb-24 10:31N 39°27' W 000°19'0 0.0
2015-Feb-24 09:31N 39°27' W 000°19'0 0.0
2015-Feb-24 08:31N 39°27' W 000°19'0 0.0
2015-Feb-24 07:31N 39°27' W 000°19'0 0.0
2015-Feb-24 06:31N 39°27' W 000°19'0 0.0
2015-Feb-24 05:31N 39°27' W 000°19'0 0.0
2015-Feb-24 04:31N 39°27' W 000°19'0 0.0
2015-Feb-24 03:31N 39°27' W 000°19'0 0.0
2015-Feb-24 02:31N 39°27' W 000°19'0 0.0
2015-Feb-24 01:31N 39°27' W 000°19'0 0.0
2015-Feb-24 00:31N 39°27' W 000°19'0 0.0
2015-Feb-23 23:31N 39°27' W 000°19'0 0.0
2015-Feb-23 22:31N 39°27' W 000°19'0 0.0
2015-Feb-23 21:31N 39°27' W 000°19'0 0.0
2015-Feb-23 20:31N 39°27' W 000°19'0 0.0
2015-Feb-23 19:31N 39°27' W 000°19'0 0.0
2015-Feb-23 18:31N 39°27' W 000°19'0 0.0
2015-Feb-23 17:31N 39°27' W 000°19'0 0.0
2015-Feb-23 16:31N 39°27' W 000°19'0 0.0
2015-Feb-23 15:28N 39°27' W 000°19'0 0.0
2015-Feb-23 14:31N 39°27' W 000°19'0 0.0
2015-Feb-23 12:31N 39°27' W 000°19'0 0.0
2015-Feb-23 11:31N 39°27' W 000°19'0 0.0
2015-Feb-23 10:31N 39°27' W 000°19'0 0.0
2015-Feb-23 09:28N 39°27' W 000°19'0 0.0
2015-Feb-23 08:31N 39°27' W 000°19'0 0.0
2015-Feb-23 07:31N 39°27' W 000°19'0 0.0
2015-Feb-23 06:31N 39°27' W 000°19'0 0.0
2015-Feb-23 05:31N 39°27' W 000°19'0 0.0
2015-Feb-23 04:31N 39°27' W 000°19'0 0.0
2015-Feb-23 03:31N 39°27' W 000°19'0 0.0
2015-Feb-23 02:31N 39°27' W 000°19'0 0.0
2015-Feb-23 01:28N 39°27' W 000°19'0 0.0
2015-Feb-23 00:31N 39°27' W 000°19'0 0.0
2015-Feb-22 23:31N 39°27' W 000°19'0 0.0
2015-Feb-22 22:31N 39°27' W 000°19'0 0.0
2015-Feb-22 21:31N 39°27' W 000°19'0 0.0
2015-Feb-22 20:31N 39°27' W 000°19'0 0.0
2015-Feb-22 19:31N 39°27' W 000°19'0 0.0
2015-Feb-22 18:31N 39°27' W 000°19'0 0.0
2015-Feb-22 17:31N 39°27' W 000°19'0 0.0
2015-Feb-22 16:31N 39°27' W 000°19'0 0.0
2015-Feb-22 15:31N 39°27' W 000°19'0 0.0
2015-Feb-22 14:31N 39°27' W 000°19'0 0.0
2015-Feb-22 13:31N 39°27' W 000°19'0 0.0
2015-Feb-22 12:31N 39°27' W 000°19'0 0.0
2015-Feb-22 11:33N 39°27' W 000°19'6 5.6
2015-Feb-22 10:33N 39°29' W 000°12'100 3.8
2015-Feb-21 08:30N 40°47' E 001°10'1515.4
2015-Feb-21 07:33N 40°32' E 001°06'1615.9
2015-Feb-21 06:33N 40°17' E 001°01'1616.1
2015-Feb-21 05:33N 40°01' E 000°55'37413.7
2015-Feb-20 02:14N 36°01' W 005°08'1014.8
2015-Feb-20 01:34N 35°59' W 005°21'  

Dump ship's entire track history